首页
METAR-TAF:

METAR-TAF

机场 :

吕贝克机场

吕贝克, 德国

纬度: 53-49N, 经度: 010-42E, 海拔: 14米

当前天气观测

该预报发布于6小时和7分钟前的20:20 UTC
风速4节,风向东转东南
温度 12°C
湿度 71%
气压 1002 hPa
能见度10公里或以上
1500米以下无云,无积雨云

METAR: EDHL 242020Z 12004KT CAVOK 12/07 Q1002

时间: 04:27 (02:27 UTC)

预报

该预报发布于9小时和27分钟前的17:00 UTC
预报有效从24日的 18点(UTC)到 24日的 21点(UTC)
风速3节,风向东南
能见度10公里或以上
1500米以下无云,无积雨云

TAF: EDHL 241700Z 2418/2421 13003KT CAVOK

超过4000个机场的气象观测和天气预报(METAR&TAF报告)。

可查询的气象台以黄色和红色小点在地图上表示。

将鼠标移到小点上方,可查看气象台名称。

然后点击查看天气观测和预报。

如需切换地图:点击带黑十字的绿色按钮放大地图;点击带横线的绿色按钮缩小地图;或者点击绿色箭头查看邻近地区的地图。


METAR-TAF: